Time;durP1;ratioP1;P1;durP2;ratioP2;P2;SDS_P1;SDS_P2;PMS_P1;PMS_P2;Temp;Humidity;BMP_temperature;BMP_pressure;BME280_temperature;BME280_humidity;BME280_pressure;Samples;Min_cycle;Max_cycle;Signal;HPM_P1;HPM_P2
2023/10/04 00:00:27;;;;;;;3.10;2.00;;;;;;;19.90;100.00;100008.94;4921628;29;20284;-90
2023/10/04 00:02:56;;;;;;;4.50;1.40;;;;;;;19.91;100.00;100010.56;4906425;29;20234;-91
2023/10/04 00:05:28;;;;;;;2.90;1.63;;;;;;;19.92;100.00;100014.09;4941493;29;20225;-90
2023/10/04 00:07:57;;;;;;;3.60;1.50;;;;;;;19.90;100.00;100008.94;4925042;29;20225;-90
2023/10/04 00:10:28;;;;;;;3.37;1.60;;;;;;;19.91;100.00;100010.56;4919895;29;20203;-90
2023/10/04 00:13:00;;;;;;;3.33;1.50;;;;;;;19.86;100.00;100015.19;4888982;29;20227;-90
2023/10/04 00:15:36;;;;;;;2.33;1.87;;;;;;;19.91;100.00;100032.31;4917258;29;20305;-90
2023/10/04 00:18:07;;;;;;;3.07;1.60;;;;;;;20.12;100.00;100038.56;4890869;29;20308;-91
2023/10/04 00:20:43;;;;;;;3.70;1.40;;;;;;;19.96;100.00;100043.22;4917971;29;20304;-91
2023/10/04 00:23:15;;;;;;;3.53;1.50;;;;;;;19.99;100.00;100055.44;4919780;29;20691;-91
2023/10/04 00:25:49;;;;;;;3.10;1.40;;;;;;;20.06;100.00;100042.41;4927597;29;20744;-90
2023/10/04 00:28:17;;;;;;;4.33;1.33;;;;;;;20.03;100.00;100073.66;4878636;29;20248;-90
2023/10/04 00:30:44;;;;;;;1.90;1.50;;;;;;;20.15;100.00;100049.75;4895167;29;20209;-90
2023/10/04 00:33:15;;;;;;;2.87;1.30;;;;;;;20.04;100.00;100061.69;4881558;29;20208;-91
2023/10/04 00:35:44;;;;;;;6.10;1.40;;;;;;;20.09;100.00;100058.16;4874290;29;20240;-90
2023/10/04 00:38:30;;;;;;;2.67;1.30;;;;;;;20.00;100.00;100047.00;4892586;29;20212;-91
2023/10/04 00:40:59;;;;;;;4.00;1.50;;;;;;;19.88;100.00;100056.50;4889155;29;20268;-90
2023/10/04 00:43:27;;;;;;;1.70;1.10;;;;;;;19.93;100.00;100051.06;4901343;29;20206;-90
2023/10/04 00:45:59;;;;;;;1.60;1.20;;;;;;;19.90;100.00;100043.47;4893368;29;20598;-90
2023/10/04 00:48:34;;;;;;;1.97;1.27;;;;;;;19.71;100.00;100054.03;4889190;29;20328;-90
2023/10/04 00:51:02;;;;;;;4.33;1.20;;;;;;;19.74;100.00;100048.03;4879548;29;20220;-90
2023/10/04 00:53:33;;;;;;;2.50;1.80;;;;;;;19.60;100.00;100050.47;4887979;29;20191;-91
2023/10/04 00:56:02;;;;;;;2.40;1.30;;;;;;;19.62;100.00;100061.09;4888925;29;20208;-90
2023/10/04 00:58:37;;;;;;;2.30;1.50;;;;;;;19.60;100.00;100057.81;4884573;29;20294;-90
2023/10/04 01:01:08;;;;;;;1.60;1.30;;;;;;;19.54;100.00;100062.44;4911503;29;20205;-90
2023/10/04 01:03:39;;;;;;;6.03;1.70;;;;;;;19.52;100.00;100055.63;4903032;29;20227;-90
2023/10/04 01:06:14;;;;;;;2.10;1.20;;;;;;;19.48;100.00;100066.22;4891501;29;20210;-91
2023/10/04 01:08:48;;;;;;;1.60;1.20;;;;;;;19.33;100.00;100072.38;4889766;29;20714;-90
2023/10/04 01:11:20;;;;;;;2.17;1.40;;;;;;;19.22;100.00;100067.97;4888491;29;20222;-90
2023/10/04 01:13:49;;;;;;;1.93;1.30;;;;;;;19.19;100.00;100082.09;4877238;29;20202;-91
2023/10/04 01:16:23;;;;;;;1.80;1.40;;;;;;;19.18;100.00;100082.34;4876057;29;20651;-90
2023/10/04 01:18:55;;;;;;;2.60;1.40;;;;;;;19.06;100.00;100087.19;4890725;29;20233;-90
2023/10/04 01:21:27;;;;;;;2.50;1.60;;;;;;;19.09;100.00;100097.53;4899395;29;20201;-90
2023/10/04 01:23:55;;;;;;;1.90;1.50;;;;;;;18.91;100.00;100094.19;4882312;29;20212;-90
2023/10/04 01:26:26;;;;;;;1.83;1.50;;;;;;;18.80;100.00;100097.13;4899751;29;20255;-90
2023/10/04 01:28:57;;;;;;;2.80;1.60;;;;;;;18.78;100.00;100099.25;4909145;29;20219;-91
2023/10/04 01:31:31;;;;;;;2.57;1.60;;;;;;;18.65;100.00;100116.00;4907291;29;20261;-91
2023/10/04 01:33:59;;;;;;;1.70;1.23;;;;;;;18.65;100.00;100105.13;4909805;29;20198;-90
2023/10/04 01:36:26;;;;;;;4.67;1.70;;;;;;;18.54;100.00;100098.00;4911391;29;20198;-91
2023/10/04 01:38:54;;;;;;;3.03;1.70;;;;;;;18.44;100.00;100096.00;4908450;29;20232;-91
2023/10/04 01:41:24;;;;;;;1.77;1.30;;;;;;;18.28;100.00;100095.06;4935901;29;20775;-90
2023/10/04 01:43:53;;;;;;;2.57;1.60;;;;;;;18.53;100.00;100110.75;4938312;29;20202;-90
2023/10/04 01:46:24;;;;;;;1.60;1.30;;;;;;;18.32;100.00;100103.50;4901583;29;20306;-91
2023/10/04 01:48:56;;;;;;;1.70;1.37;;;;;;;18.28;100.00;100095.06;4904787;29;20243;-91
2023/10/04 01:51:27;;;;;;;2.80;1.40;;;;;;;18.17;100.00;100093.34;4923239;29;20237;-91
2023/10/04 01:53:59;;;;;;;1.57;1.30;;;;;;;18.26;100.00;100099.91;4896372;29;20266;-90
2023/10/04 01:56:27;;;;;;;3.10;1.27;;;;;;;18.21;100.00;100107.19;4902126;29;20195;-90
2023/10/04 01:59:02;;;;;;;1.80;1.40;;;;;;;18.16;100.00;100101.72;4926567;29;20266;-90
2023/10/04 02:01:33;;;;;;;1.90;1.50;;;;;;;18.17;100.00;100109.59;4923219;29;20198;-91
2023/10/04 02:04:08;;;;;;;2.90;1.40;;;;;;;18.15;100.00;100119.09;4890972;29;20222;-89
2023/10/04 02:06:40;;;;;;;2.57;1.40;;;;;;;18.05;100.00;100117.09;4890881;29;20675;-90
2023/10/04 02:09:11;;;;;;;2.20;1.27;;;;;;;17.98;100.00;100119.19;4907717;29;20262;-91
2023/10/04 02:12:02;;;;;;;1.43;1.03;;;;;;;18.00;100.00;100125.19;4915456;29;20208;-90
2023/10/04 02:14:40;;;;;;;2.77;1.20;;;;;;;17.86;100.00;100135.63;4920984;29;20206;-90
2023/10/04 02:17:09;;;;;;;1.90;1.03;;;;;;;17.89;100.00;100135.09;4927271;29;20244;-90
2023/10/04 02:19:37;;;;;;;1.60;1.20;;;;;;;17.88;100.00;100135.34;4908012;29;20217;-90
2023/10/04 02:22:20;;;;;;;2.93;1.37;;;;;;;17.77;100.00;100133.59;4912757;29;20220;-90
2023/10/04 02:24:48;;;;;;;1.70;1.03;;;;;;;17.85;100.00;100136.69;4929417;29;20193;-90
2023/10/04 02:27:19;;;;;;;1.63;1.20;;;;;;;17.69;100.00;100134.84;4929255;29;20737;-91
2023/10/04 02:29:59;;;;;;;1.70;1.27;;;;;;;17.56;100.00;100146.88;4903319;29;20234;-90
2023/10/04 02:32:30;;;;;;;2.00;1.13;;;;;;;17.63;100.00;100144.03;4904272;29;20237;-90
2023/10/04 02:35:00;;;;;;;1.87;1.20;;;;;;;17.56;100.00;100146.88;4920511;29;20248;-91
2023/10/04 02:37:28;;;;;;;2.00;1.33;;;;;;;17.43;100.00;100163.53;4889295;29;20252;-89
2023/10/04 02:39:59;;;;;;;2.83;1.20;;;;;;;17.46;100.00;100157.59;4900930;29;20210;-90
2023/10/04 02:42:28;;;;;;;3.17;1.10;;;;;;;17.46;100.00;100175.72;4892096;29;20210;-91
2023/10/04 02:45:01;;;;;;;1.40;1.10;;;;;;;17.31;100.00;100176.34;4892058;29;20229;-90
2023/10/04 02:47:29;;;;;;;1.50;1.13;;;;;;;17.31;100.00;100183.66;4907153;29;20206;-90
2023/10/04 02:50:15;;;;;;;3.00;1.27;;;;;;;17.18;100.00;100192.94;4918219;29;20225;-90
2023/10/04 02:52:46;;;;;;;2.90;1.20;;;;;;;17.10;100.00;100190.69;4902657;29;20233;-90
2023/10/04 02:55:17;;;;;;;1.47;1.20;;;;;;;17.13;100.00;100195.59;4895805;29;20205;-89
2023/10/04 02:57:49;;;;;;;1.53;1.37;;;;;;;17.27;100.00;100186.03;4890321;29;20221;-90
2023/10/04 03:00:19;;;;;;;1.40;1.20;;;;;;;17.00;100.00;100180.50;4888684;29;20202;-91
2023/10/04 03:02:53;;;;;;;2.13;1.30;;;;;;;16.91;100.00;100178.47;4890705;29;20710;-91
2023/10/04 03:05:28;;;;;;;1.40;1.07;;;;;;;16.80;100.00;100199.13;4902778;29;20256;-90
2023/10/04 03:08:06;;;;;;;1.67;1.20;;;;;;;16.75;100.00;100214.50;4911330;29;20711;-89
2023/10/04 03:10:36;;;;;;;2.40;1.40;;;;;;;16.78;100.00;100220.22;4890014;29;20213;-90
2023/10/04 03:13:12;;;;;;;1.60;1.30;;;;;;;16.81;100.00;100238.66;4894780;29;20204;-91
2023/10/04 03:15:42;;;;;;;1.30;1.10;;;;;;;16.76;100.00;100230.47;4903900;29;21089;-90
2023/10/04 03:18:18;;;;;;;1.47;1.30;;;;;;;16.65;100.00;100243.03;4920350;29;20237;-90
2023/10/04 03:21:08;;;;;;;2.37;1.33;;;;;;;16.59;100.00;100246.69;4891055;29;20198;-90
2023/10/04 03:23:40;;;;;;;2.00;1.30;;;;;;;16.66;100.00;100247.34;4905083;29;20210;-90
2023/10/04 03:26:16;;;;;;;2.00;1.40;;;;;;;16.62;100.00;100227.25;4886837;29;20240;-90
2023/10/04 03:28:52;;;;;;;1.77;1.33;;;;;;;16.57;100.00;100221.72;4914773;29;20225;-90
2023/10/04 03:31:24;;;;;;;1.63;1.30;;;;;;;16.47;100.00;100223.47;4918792;29;20202;-90
2023/10/04 03:33:59;;;;;;;2.13;1.10;;;;;;;16.40;100.00;100214.66;4920412;29;20205;-90
2023/10/04 03:36:29;;;;;;;1.83;1.30;;;;;;;16.38;100.00;100214.91;4904461;29;20237;-90
2023/10/04 03:39:09;;;;;;;1.73;1.17;;;;;;;16.51;100.00;100222.72;4902712;29;20689;-90
2023/10/04 03:41:42;;;;;;;1.80;1.40;;;;;;;16.59;100.00;100224.22;4922810;29;20213;-90
2023/10/04 03:44:13;;;;;;;2.80;1.43;;;;;;;16.61;100.00;100220.19;4894722;29;20216;-89
2023/10/04 03:46:43;;;;;;;1.57;1.10;;;;;;;16.55;100.00;100223.06;4892009;29;20205;-90
2023/10/04 03:49:19;;;;;;;1.83;1.20;;;;;;;16.50;100.00;100222.97;4926867;29;20277;-90
2023/10/04 03:51:52;;;;;;;2.43;1.40;;;;;;;16.43;100.00;100224.97;4891954;29;20619;-90
2023/10/04 03:54:21;;;;;;;2.13;1.30;;;;;;;16.39;100.00;100231.94;4891813;29;20248;-90
2023/10/04 03:56:49;;;;;;;2.30;1.40;;;;;;;16.41;100.00;100235.25;4888249;29;20201;-90
2023/10/04 03:59:22;;;;;;;1.40;1.20;;;;;;;16.37;100.00;100237.63;4913483;29;20198;-89
2023/10/04 04:01:55;;;;;;;1.80;1.30;;;;;;;16.32;100.00;100231.28;4913536;29;20193;-90
2023/10/04 04:04:33;;;;;;;1.77;1.13;;;;;;;16.35;100.00;100237.03;4917586;29;20265;-90
2023/10/04 04:07:02;;;;;;;1.57;1.20;;;;;;;16.18;100.00;100246.97;4894264;29;20666;-90
2023/10/04 04:09:33;;;;;;;1.90;1.40;;;;;;;16.18;100.00;100238.88;4921103;29;20689;-90
2023/10/04 04:12:07;;;;;;;2.37;1.57;;;;;;;16.15;100.00;100248.25;4904375;29;20260;-89
2023/10/04 04:14:40;;;;;;;1.57;1.20;;;;;;;16.07;100.00;100261.34;4902604;29;20209;-89
2023/10/04 04:17:08;;;;;;;2.17;1.60;;;;;;;16.03;100.00;100258.31;4898586;29;20241;-90
2023/10/04 04:19:40;;;;;;;1.97;1.47;;;;;;;15.97;100.00;100251.16;4913280;29;20271;-90
2023/10/04 04:22:11;;;;;;;2.43;1.50;;;;;;;15.85;100.00;100259.31;4933870;29;20285;-90
2023/10/04 04:24:44;;;;;;;1.40;1.20;;;;;;;15.68;100.00;100262.97;4928278;29;20203;-90
2023/10/04 04:27:14;;;;;;;2.23;1.40;;;;;;;15.81;100.00;100279.75;4889247;29;20234;-90
2023/10/04 04:29:43;;;;;;;1.90;1.40;;;;;;;15.69;100.00;100283.53;4888781;29;20234;-89
2023/10/04 04:32:15;;;;;;;2.30;1.60;;;;;;;15.62;100.00;100283.66;4905316;29;20313;-90
2023/10/04 04:34:43;;;;;;;1.70;1.40;;;;;;;15.56;100.00;100284.59;4914146;29;20231;-91
2023/10/04 04:37:14;;;;;;;2.20;1.33;;;;;;;15.42;100.00;100278.59;4909321;29;20201;-90
2023/10/04 04:39:46;;;;;;;2.30;1.60;;;;;;;15.28;100.00;100290.69;4904128;29;20745;-90
2023/10/04 04:42:20;;;;;;;2.93;1.60;;;;;;;15.25;100.00;100296.56;4890690;29;20204;-91
2023/10/04 04:44:56;;;;;;;2.60;1.40;;;;;;;15.23;100.00;100304.06;4907126;29;20745;-90
2023/10/04 04:47:31;;;;;;;2.93;1.60;;;;;;;15.15;100.00;100298.19;4922783;29;20208;-90
2023/10/04 04:50:02;;;;;;;2.53;1.37;;;;;;;15.02;100.00;100295.69;4903824;29;20225;-91
2023/10/04 04:52:31;;;;;;;1.80;1.23;;;;;;;14.90;100.00;100303.75;4902660;29;20213;-90
2023/10/04 04:55:00;;;;;;;2.37;1.37;;;;;;;14.95;100.00;100307.41;4902187;29;20220;-89
2023/10/04 04:57:30;;;;;;;3.67;1.63;;;;;;;14.86;100.00;100313.38;4906102;29;20249;-91
2023/10/04 05:00:06;;;;;;;2.87;1.40;;;;;;;14.85;100.00;100315.25;4925821;29;20198;-90
2023/10/04 05:02:34;;;;;;;2.03;1.50;;;;;;;14.76;100.00;100324.72;4909709;29;20296;-90
2023/10/04 05:05:07;;;;;;;4.30;1.50;;;;;;;14.78;100.00;100328.03;4931892;29;20209;-90
2023/10/04 05:07:40;;;;;;;6.07;1.60;;;;;;;14.68;100.00;100333.16;4910455;29;20216;-90
2023/10/04 05:10:10;;;;;;;5.33;1.63;;;;;;;14.69;100.00;100332.09;4929099;29;20221;-90
2023/10/04 05:12:40;;;;;;;6.23;1.90;;;;;;;14.64;100.00;100329.25;4921687;29;20194;-90
2023/10/04 05:15:24;;;;;;;5.77;1.60;;;;;;;14.54;100.00;100335.22;4893454;29;20694;-90
2023/10/04 05:17:51;;;;;;;6.57;1.80;;;;;;;14.51;100.00;100343.72;4917071;29;20209;-90
2023/10/04 05:20:25;;;;;;;5.23;1.80;;;;;;;14.53;100.00;100351.59;4894683;29;20659;-90
2023/10/04 05:22:55;;;;;;;4.10;1.63;;;;;;;14.49;100.00;100345.84;4903746;29;20276;-90
2023/10/04 05:25:24;;;;;;;5.77;1.70;;;;;;;14.38;100.00;100346.59;4905520;29;20230;-90
2023/10/04 05:27:53;;;;;;;6.17;2.07;;;;;;;14.40;100.00;100341.81;4901907;29;20250;-90
2023/10/04 05:30:22;;;;;;;5.53;1.60;;;;;;;14.39;100.00;100350.94;4918002;29;20733;-90
2023/10/04 05:32:50;;;;;;;2.47;1.40;;;;;;;14.38;100.00;100361.94;4902208;29;20214;-90
2023/10/04 05:35:18;;;;;;;1.97;1.40;;;;;;;14.45;100.00;100360.84;4918104;29;20229;-89
2023/10/04 05:37:47;;;;;;;2.53;1.53;;;;;;;14.61;100.00;100353.16;4904002;29;20210;-88
2023/10/04 05:40:23;;;;;;;4.73;1.83;;;;;;;14.48;100.00;100357.69;4886439;29;20675;-89
2023/10/04 05:45:49;;;;;;;2.40;1.50;;;;;;;14.49;100.00;100361.19;5021215;23;20236;-90
2023/10/04 05:48:19;;;;;;;4.40;1.57;;;;;;;14.57;100.00;100368.97;4931634;29;20194;-91
2023/10/04 05:50:49;;;;;;;2.67;1.60;;;;;;;14.64;100.00;100367.03;4911175;29;20239;-91
2023/10/04 05:53:20;;;;;;;2.93;1.80;;;;;;;14.81;100.00;100376.09;4929349;28;20211;-91
2023/10/04 05:55:50;;;;;;;1.83;1.33;;;;;;;14.88;100.00;100371.44;4913613;29;20212;-91
2023/10/04 05:58:25;;;;;;;1.93;1.40;;;;;;;15.03;100.00;100375.56;4931632;28;20316;-91
2023/10/04 06:00:54;;;;;;;2.30;1.47;;;;;;;15.08;100.00;100373.00;4945047;28;20193;-91
2023/10/04 06:03:24;;;;;;;3.57;1.50;;;;;;;15.11;100.00;100376.09;4915802;29;20236;-91
2023/10/04 06:05:55;;;;;;;1.60;1.40;;;;;;;15.27;100.00;100367.31;4939449;29;20208;-87
2023/10/04 06:11:21;;;;;;;2.07;1.30;;;;;;;15.22;100.00;100369.88;5099388;23;20232;-91
2023/10/04 06:13:50;;;;;;;1.73;1.37;;;;;;;15.31;100.00;100364.97;4909171;29;20233;-91
2023/10/04 06:16:19;;;;;;;4.70;1.60;;;;;;;15.31;100.00;100375.75;4939850;29;20201;-91
2023/10/04 06:18:49;;;;;;;4.03;1.53;;;;;;;15.44;100.00;100378.28;4924669;28;20201;-91
2023/10/04 06:21:23;;;;;;;2.87;1.53;;;;;;;15.56;100.00;100375.59;4914206;29;20204;-89
2023/10/04 06:23:58;;;;;;;2.43;1.77;;;;;;;15.73;100.00;100382.75;4931745;28;21111;-88
2023/10/04 06:26:27;;;;;;;2.03;1.43;;;;;;;15.82;100.00;100381.34;4916453;29;20208;-91
2023/10/04 06:28:56;;;;;;;1.93;1.33;;;;;;;16.07;100.00;100391.09;4945854;29;20207;-90
2023/10/04 06:31:24;;;;;;;2.60;1.60;;;;;;;16.21;100.00;100397.88;4915844;29;20201;-91
2023/10/04 06:33:55;;;;;;;2.13;1.30;;;;;;;16.37;100.00;100405.28;4943132;29;20201;-91
2023/10/04 06:36:25;;;;;;;2.00;1.30;;;;;;;16.52;100.00;100404.75;4938942;28;20216;-92
2023/10/04 06:38:56;;;;;;;1.73;1.53;;;;;;;16.54;100.00;100410.75;4924316;29;20670;-91
2023/10/04 06:41:27;;;;;;;2.40;1.40;;;;;;;16.79;100.00;100418.59;4909834;28;20221;-92
2023/10/04 06:43:58;;;;;;;3.30;1.40;;;;;;;17.00;100.00;100412.50;4927180;28;20200;-92
2023/10/04 06:46:27;;;;;;;1.60;1.17;;;;;;;17.22;100.00;100418.03;4926797;28;20237;-91
2023/10/04 06:48:57;;;;;;;2.17;1.30;;;;;;;17.38;100.00;100418.06;4924825;29;20201;-92
2023/10/04 06:51:28;;;;;;;3.03;1.80;;;;;;;17.52;100.00;100418.56;4923855;29;20239;-91
2023/10/04 06:53:58;;;;;;;5.33;1.70;;;;;;;17.76;100.00;100427.38;4907810;28;20205;-91
2023/10/04 06:56:27;;;;;;;2.23;1.70;;;;;;;17.94;100.00;100418.97;4927003;28;20669;-92
2023/10/04 06:58:55;;;;;;;6.73;1.57;;;;;;;18.19;100.00;100422.06;4920733;29;20205;-92
2023/10/04 07:01:25;;;;;;;4.17;1.53;;;;;;;18.35;100.00;100436.63;4913459;29;20671;-92
2023/10/04 07:03:54;;;;;;;2.63;1.50;;;;;;;18.35;100.00;100436.63;4904363;29;20239;-92
2023/10/04 07:06:21;;;;;;;3.13;1.70;;;;;;;18.46;100.00;100433.81;4919963;29;20202;-92
2023/10/04 07:08:50;;;;;;;2.50;1.50;;;;;;;18.45;100.00;100425.91;4900097;29;20687;-93
2023/10/04 07:11:25;;;;;;;1.70;1.30;;;;;;;18.61;100.00;100435.94;4920733;29;20730;-92
2023/10/04 07:13:53;;;;;;;5.20;1.70;;;;;;;18.42;100.00;100440.81;4915899;29;20485;-92
2023/10/04 07:16:21;;;;;;;2.47;1.57;;;;;;;18.54;100.00;100445.31;4933894;29;20668;-92
2023/10/04 07:18:53;;;;;;;2.27;1.40;;;;;;;18.84;100.00;100445.72;4925642;29;20213;-92
2023/10/04 07:21:26;;;;;;;3.93;1.50;;;;;;;18.69;100.00;100442.81;4948135;29;20212;-92
2023/10/04 07:24:06;;;;;;;5.13;1.70;;;;;;;18.88;100.00;100442.22;4933456;29;20300;-92
2023/10/04 07:26:37;;;;;;;3.30;1.40;;;;;;;18.78;100.00;100452.97;4928292;29;20722;-92
2023/10/04 07:29:07;;;;;;;4.63;1.80;;;;;;;18.65;100.00;100447.09;4916943;29;20292;-91
2023/10/04 07:31:37;;;;;;;2.50;1.30;;;;;;;18.66;100.00;100448.75;4923082;29;20258;-92
2023/10/04 07:34:09;;;;;;;4.47;1.70;;;;;;;18.47;100.00;100448.22;4906009;29;20207;-92
2023/10/04 07:36:37;;;;;;;4.73;1.70;;;;;;;18.42;100.00;100451.66;4917657;29;20685;-92
2023/10/04 07:39:06;;;;;;;2.37;1.53;;;;;;;18.17;100.00;100453.19;4923665;29;20202;-92
2023/10/04 07:41:37;;;;;;;3.83;1.67;;;;;;;18.41;100.00;100463.59;4923760;29;20288;-92
2023/10/04 07:44:10;;;;;;;2.27;1.57;;;;;;;18.34;100.00;100460.22;4935026;29;20257;-92
2023/10/04 07:46:37;;;;;;;4.23;1.53;;;;;;;18.37;100.00;100467.06;4919254;29;20212;-92
2023/10/04 07:49:05;;;;;;;2.40;1.50;;;;;;;18.26;100.00;100468.78;4917767;29;20302;-92
2023/10/04 07:51:35;;;;;;;2.60;1.30;;;;;;;18.20;100.00;100464.34;4936696;29;20233;-92
2023/10/04 07:54:07;;;;;;;1.60;1.23;;;;;;;18.00;100.00;100467.63;4919333;29;20202;-91
2023/10/04 07:56:35;;;;;;;2.97;1.73;;;;;;;18.08;100.00;100469.06;4902725;29;20587;-92
2023/10/04 07:59:05;;;;;;;2.83;1.67;;;;;;;18.18;100.00;100469.22;4903610;29;20292;-92
2023/10/04 08:01:40;;;;;;;1.90;1.30;;;;;;;17.92;100.00;100476.13;4935037;29;20690;-91
2023/10/04 08:04:12;;;;;;;3.00;1.70;;;;;;;17.97;100.00;100469.97;4920361;29;20221;-92
2023/10/04 08:06:49;;;;;;;2.03;1.47;;;;;;;17.93;100.00;100477.78;4919715;29;20307;-92
2023/10/04 08:09:22;;;;;;;3.03;1.70;;;;;;;17.69;100.00;100472.78;4937353;29;20263;-92
2023/10/04 08:11:50;;;;;;;3.43;1.53;;;;;;;17.60;100.00;100473.19;4899590;29;20317;-92
2023/10/04 08:14:21;;;;;;;3.27;1.50;;;;;;;17.73;100.00;100472.03;4906609;29;20245;-92
2023/10/04 08:16:58;;;;;;;4.73;1.20;;;;;;;17.46;100.00;100481.84;4902010;29;20206;-91
2023/10/04 08:19:27;;;;;;;2.43;1.60;;;;;;;17.60;100.00;100485.91;4908279;29;20208;-91
2023/10/04 08:22:15;;;;;;;2.37;1.40;;;;;;;17.47;100.00;100492.44;4909652;29;20198;-92
2023/10/04 08:24:46;;;;;;;2.67;1.60;;;;;;;17.67;100.00;100492.00;4900529;29;20207;-92
2023/10/04 08:27:17;;;;;;;2.57;1.40;;;;;;;17.68;100.00;100504.50;4901353;29;20237;-93
2023/10/04 08:29:44;;;;;;;3.30;1.40;;;;;;;17.67;100.00;100505.56;4910717;29;20214;-93
2023/10/04 08:32:12;;;;;;;4.00;1.63;;;;;;;17.77;100.00;100497.59;4917032;29;20230;-92
2023/10/04 08:34:49;;;;;;;4.80;1.73;;;;;;;17.81;100.00;100506.88;4900390;29;20221;-92
2023/10/04 08:37:30;;;;;;;2.90;1.40;;;;;;;17.71;100.00;100506.69;4900218;29;20210;-91
2023/10/04 08:40:03;;;;;;;2.73;1.50;;;;;;;17.85;100.00;100507.19;4900167;29;20313;-92
2023/10/04 08:42:41;;;;;;;3.70;1.63;;;;;;;17.67;100.00;100508.25;4900072;29;20265;-91
2023/10/04 08:45:15;;;;;;;2.97;1.80;;;;;;;17.77;100.00;100519.28;4900866;29;20234;-92
2023/10/04 08:47:57;;;;;;;3.20;1.50;;;;;;;17.77;100.00;100513.88;4904572;29;20302;-92
2023/10/04 08:50:55;;;;;;;3.57;1.37;;;;;;;18.09;100.00;100516.00;4900089;29;20237;-92
2023/10/04 08:53:52;;;;;;;3.57;2.00;;;;;;;18.12;100.00;100499.22;4898982;29;20198;-93
2023/10/04 08:56:24;;;;;;;5.30;1.83;;;;;;;18.17;100.00;100499.31;4916161;29;20230;-92
2023/10/04 08:58:52;;;;;;;6.77;1.70;;;;;;;18.19;100.00;100500.72;4902167;29;20201;-93
2023/10/04 09:01:29;;;;;;;3.80;1.77;;;;;;;17.93;100.00;100507.63;4896352;29;20206;-92
2023/10/04 09:03:59;;;;;;;4.43;1.60;;;;;;;18.19;100.00;100495.28;4922493;29;20276;-92
2023/10/04 09:06:31;;;;;;;6.33;1.77;;;;;;;18.25;100.00;100488.84;4910623;29;20282;-92
2023/10/04 09:09:05;;;;;;;5.17;1.87;;;;;;;18.53;100.00;100496.06;4891255;29;20226;-93
2023/10/04 09:11:34;;;;;;;5.03;1.60;;;;;;;18.62;100.00;100491.84;4927389;29;20249;-92
2023/10/04 09:14:03;;;;;;;3.63;1.60;;;;;;;18.43;100.00;100490.44;4917662;29;20238;-92
2023/10/04 09:16:31;;;;;;;2.17;1.40;;;;;;;18.30;100.00;100480.78;4931291;29;20287;-92
2023/10/04 09:19:29;;;;;;;3.47;1.90;;;;;;;18.24;100.00;100479.09;4915079;29;20277;-92
2023/10/04 09:22:05;;;;;;;3.27;1.77;;;;;;;18.23;100.00;100479.34;4879283;29;20658;-92
2023/10/04 09:24:54;;;;;;;2.97;1.70;;;;;;;18.23;100.00;100471.19;4887963;29;20298;-92
2023/10/04 09:27:22;;;;;;;2.83;1.50;;;;;;;18.18;100.00;100468.41;4911421;29;20222;-92
2023/10/04 09:29:53;;;;;;;2.83;1.60;;;;;;;18.15;100.00;100469.72;4911051;29;20201;-92
2023/10/04 09:32:36;;;;;;;2.93;1.77;;;;;;;17.78;100.00;100477.53;4915771;29;20210;-92
2023/10/04 09:35:08;;;;;;;1.67;1.40;;;;;;;17.65;100.00;100474.34;4916034;29;20206;-91
2023/10/04 09:37:44;;;;;;;1.87;1.47;;;;;;;17.64;100.00;100473.50;4918896;29;20206;-92
2023/10/04 09:40:15;;;;;;;1.80;1.67;;;;;;;17.67;100.00;100474.91;4911446;29;20202;-93
2023/10/04 09:43:02;;;;;;;1.60;1.50;;;;;;;18.17;100.00;100480.31;4903449;29;20644;-93
2023/10/04 09:45:31;;;;;;;2.90;1.53;;;;;;;18.51;100.00;100492.75;4936186;29;20206;-91
2023/10/04 09:48:03;;;;;;;2.00;1.40;;;;;;;18.64;100.00;100484.28;4927878;29;20206;-92
2023/10/04 09:50:36;;;;;;;2.70;1.60;;;;;;;18.70;100.00;100494.13;4896872;29;20326;-92
2023/10/04 09:53:14;;;;;;;2.87;1.67;;;;;;;18.69;100.00;100491.66;4902096;29;20207;-90
2023/10/04 09:55:48;;;;;;;3.17;1.43;;;;;;;18.92;100.00;100485.97;4920477;29;20298;-90
2023/10/04 09:58:22;;;;;;;3.90;1.67;;;;;;;18.72;100.00;100483.00;4911337;29;20213;-92
2023/10/04 10:00:55;;;;;;;2.37;1.50;;;;;;;18.73;100.00;100482.75;4917622;29;20208;-92
2023/10/04 10:03:30;;;;;;;2.30;1.70;;;;;;;18.92;100.00;100484.09;4920394;29;20699;-93
2023/10/04 10:05:59;;;;;;;2.23;1.50;;;;;;;19.10;100.00;100482.94;4922659;29;20679;-91
2023/10/04 10:08:32;;;;;;;4.10;1.63;;;;;;;18.98;100.00;100495.84;4899697;29;20202;-92
2023/10/04 10:11:02;;;;;;;2.23;1.90;;;;;;;18.73;100.00;100481.94;4917575;29;20249;-91
2023/10/04 10:13:30;;;;;;;3.00;1.73;;;;;;;18.68;100.00;100493.56;4926780;29;20230;-91
2023/10/04 10:15:58;;;;;;;4.37;1.63;;;;;;;18.70;100.00;100479.75;4926940;29;20193;-91
2023/10/04 10:18:27;;;;;;;2.07;1.43;;;;;;;18.59;100.00;100476.06;4931128;29;20213;-91
2023/10/04 10:20:58;;;;;;;2.77;1.50;;;;;;;18.64;100.00;100484.28;4948854;29;20256;-92
2023/10/04 10:23:55;;;;;;;3.93;1.80;;;;;;;18.79;100.00;100483.66;4942075;29;20302;-91
2023/10/04 10:26:29;;;;;;;2.20;1.60;;;;;;;19.00;100.00;100481.97;4935985;29;20203;-91
2023/10/04 10:29:03;;;;;;;2.57;1.50;;;;;;;19.34;100.00;100478.03;4946835;29;20302;-91
2023/10/04 10:31:32;;;;;;;2.67;1.77;;;;;;;19.48;100.00;100479.28;4921054;29;20253;-92
2023/10/04 10:34:07;;;;;;;3.10;1.57;;;;;;;19.98;100.00;100487.03;4939716;29;20252;-90
2023/10/04 10:36:38;;;;;;;3.77;1.43;;;;;;;20.18;100.00;100484.47;4939426;29;20236;-91
2023/10/04 10:39:19;;;;;;;3.30;1.93;;;;;;;20.05;100.00;100484.09;4936317;29;20635;-91
2023/10/04 10:41:57;;;;;;;2.50;1.70;;;;;;;19.95;100.00;100484.84;4928681;29;20206;-91
2023/10/04 10:44:33;;;;;;;2.63;1.73;;;;;;;20.05;100.00;100484.09;4940086;29;20200;-91
2023/10/04 10:47:04;;;;;;;5.13;1.90;;;;;;;20.21;100.00;100475.78;4942957;29;20195;-90
2023/10/04 10:49:40;;;;;;;2.27;1.70;;;;;;;20.08;100.00;100489.00;4932166;29;20262;-91
2023/10/04 10:52:34;;;;;;;2.03;1.40;;;;;;;20.14;100.00;100477.09;4924344;29;20228;-91
2023/10/04 10:55:11;;;;;;;1.73;1.47;;;;;;;20.40;99.86;100472.66;4917593;29;20199;-90
2023/10/04 10:57:47;;;;;;;2.73;1.50;;;;;;;20.73;96.85;100472.28;4950243;29;20205;-91
2023/10/04 11:00:25;;;;;;;2.50;1.60;;;;;;;20.55;92.92;100467.28;4939451;29;20284;-89
2023/10/04 11:02:58;;;;;;;3.90;1.80;;;;;;;20.56;92.98;100463.50;4927662;29;20241;-91
2023/10/04 11:05:29;;;;;;;3.13;1.70;;;;;;;20.43;92.16;100463.97;4941793;29;20212;-90
2023/10/04 11:08:06;;;;;;;4.93;1.83;;;;;;;20.45;91.88;100462.59;4937912;29;20198;-90
2023/10/04 11:10:40;;;;;;;1.90;1.50;;;;;;;20.21;90.50;100467.59;4924941;29;20285;-90
2023/10/04 11:13:17;;;;;;;3.20;1.60;;;;;;;19.97;91.95;100466.34;4924588;29;20677;-91
2023/10/04 11:15:46;;;;;;;3.60;1.70;;;;;;;19.80;93.09;100465.69;4924265;29;20213;-91
2023/10/04 11:18:15;;;;;;;2.97;1.70;;;;;;;19.54;95.53;100464.66;4904531;29;20200;-91
2023/10/04 11:20:45;;;;;;;2.70;1.50;;;;;;;19.50;94.67;100452.69;4927079;29;20266;-91
2023/10/04 11:23:12;;;;;;;1.90;1.67;;;;;;;19.47;95.40;100455.88;4955109;29;20282;-91
2023/10/04 11:25:40;;;;;;;3.03;1.70;;;;;;;19.45;96.74;100446.38;4936106;29;20224;-91
2023/10/04 11:28:11;;;;;;;2.23;1.80;;;;;;;19.57;94.26;100438.84;4955178;29;20215;-91
2023/10/04 11:30:40;;;;;;;2.70;1.47;;;;;;;19.55;96.39;100443.75;4954515;29;20256;-91
2023/10/04 11:33:13;;;;;;;4.07;2.03;;;;;;;19.53;94.46;100440.44;4935543;29;20205;-91
2023/10/04 11:35:45;;;;;;;2.97;1.50;;;;;;;19.38;95.39;100432.94;4919257;29;20208;-91
2023/10/04 11:38:15;;;;;;;3.30;1.47;;;;;;;19.30;95.57;100431.53;4955001;29;20212;-92
2023/10/04 11:40:50;;;;;;;1.77;1.57;;;;;;;19.36;97.00;100433.19;4924745;29;20217;-91
2023/10/04 11:43:24;;;;;;;2.20;1.50;;;;;;;19.38;96.76;100429.41;4936259;29;20752;-91
2023/10/04 11:46:00;;;;;;;1.97;1.50;;;;;;;19.39;95.71;100422.91;4938008;29;20212;-91